sensor_id;sensor_type;location;lat;lon;timestamp;P1;durP1;ratioP1;P2;durP2;ratioP2
33714;SDS011;20043;50.998;4.754;2023-07-31T00:00:24;20.13;;;6.20;;
33714;SDS011;20043;50.998;4.754;2023-07-31T00:02:51;16.35;;;5.93;;
33714;SDS011;20043;50.998;4.754;2023-07-31T00:05:17;22.38;;;6.20;;
33714;SDS011;20043;50.998;4.754;2023-07-31T00:07:42;22.63;;;6.22;;
33714;SDS011;20043;50.998;4.754;2023-07-31T00:10:08;19.48;;;6.57;;
33714;SDS011;20043;50.998;4.754;2023-07-31T00:12:34;22.20;;;6.85;;
33714;SDS011;20043;50.998;4.754;2023-07-31T00:14:59;19.27;;;6.53;;
33714;SDS011;20043;50.998;4.754;2023-07-31T00:17:25;21.23;;;7.30;;
33714;SDS011;20043;50.998;4.754;2023-07-31T00:19:50;22.88;;;7.40;;
33714;SDS011;20043;50.998;4.754;2023-07-31T00:22:16;20.55;;;6.80;;
33714;SDS011;20043;50.998;4.754;2023-07-31T00:24:42;20.42;;;6.57;;
33714;SDS011;20043;50.998;4.754;2023-07-31T00:27:07;18.30;;;6.55;;
33714;SDS011;20043;50.998;4.754;2023-07-31T00:29:33;20.50;;;6.90;;
33714;SDS011;20043;50.998;4.754;2023-07-31T00:31:58;18.95;;;6.63;;
33714;SDS011;20043;50.998;4.754;2023-07-31T00:34:24;21.02;;;6.25;;
33714;SDS011;20043;50.998;4.754;2023-07-31T00:36:49;20.83;;;7.07;;
33714;SDS011;20043;50.998;4.754;2023-07-31T00:39:15;24.52;;;6.82;;
33714;SDS011;20043;50.998;4.754;2023-07-31T00:41:40;18.35;;;6.38;;
33714;SDS011;20043;50.998;4.754;2023-07-31T00:44:06;23.23;;;6.50;;
33714;SDS011;20043;50.998;4.754;2023-07-31T00:46:32;17.42;;;6.15;;
33714;SDS011;20043;50.998;4.754;2023-07-31T00:48:57;19.63;;;6.55;;
33714;SDS011;20043;50.998;4.754;2023-07-31T00:51:24;23.98;;;7.28;;
33714;SDS011;20043;50.998;4.754;2023-07-31T00:53:49;22.50;;;7.60;;
33714;SDS011;20043;50.998;4.754;2023-07-31T00:56:15;24.85;;;7.43;;
33714;SDS011;20043;50.998;4.754;2023-07-31T00:58:41;27.40;;;7.40;;
33714;SDS011;20043;50.998;4.754;2023-07-31T01:01:07;22.35;;;6.68;;
33714;SDS011;20043;50.998;4.754;2023-07-31T01:03:32;24.30;;;7.43;;
33714;SDS011;20043;50.998;4.754;2023-07-31T01:11:14;21.92;;;7.93;;
33714;SDS011;20043;50.998;4.754;2023-07-31T01:13:43;24.58;;;7.32;;
33714;SDS011;20043;50.998;4.754;2023-07-31T01:16:09;23.17;;;7.63;;
33714;SDS011;20043;50.998;4.754;2023-07-31T01:18:35;31.23;;;8.05;;
33714;SDS011;20043;50.998;4.754;2023-07-31T01:21:06;25.50;;;7.35;;
33714;SDS011;20043;50.998;4.754;2023-07-31T01:26:38;23.48;;;7.00;;
33714;SDS011;20043;50.998;4.754;2023-07-31T01:29:07;25.58;;;7.72;;
33714;SDS011;20043;50.998;4.754;2023-07-31T01:31:40;33.30;;;7.20;;
33714;SDS011;20043;50.998;4.754;2023-07-31T01:34:08;21.92;;;6.90;;
33714;SDS011;20043;50.998;4.754;2023-07-31T01:36:36;19.02;;;7.25;;
33714;SDS011;20043;50.998;4.754;2023-07-31T01:39:02;23.90;;;6.78;;
33714;SDS011;20043;50.998;4.754;2023-07-31T01:41:28;20.00;;;6.95;;
33714;SDS011;20043;50.998;4.754;2023-07-31T01:43:54;22.40;;;7.88;;
33714;SDS011;20043;50.998;4.754;2023-07-31T01:46:20;25.48;;;7.38;;
33714;SDS011;20043;50.998;4.754;2023-07-31T01:48:45;29.35;;;7.38;;
33714;SDS011;20043;50.998;4.754;2023-07-31T01:51:11;17.27;;;6.95;;
33714;SDS011;20043;50.998;4.754;2023-07-31T01:53:36;26.48;;;6.90;;
33714;SDS011;20043;50.998;4.754;2023-07-31T01:56:02;20.33;;;6.97;;
33714;SDS011;20043;50.998;4.754;2023-07-31T01:58:27;21.17;;;6.90;;
33714;SDS011;20043;50.998;4.754;2023-07-31T02:00:53;24.33;;;7.47;;
33714;SDS011;20043;50.998;4.754;2023-07-31T02:03:18;22.50;;;7.18;;
33714;SDS011;20043;50.998;4.754;2023-07-31T02:05:47;17.88;;;6.70;;
33714;SDS011;20043;50.998;4.754;2023-07-31T02:08:14;19.00;;;6.50;;
33714;SDS011;20043;50.998;4.754;2023-07-31T02:10:40;18.10;;;6.80;;
33714;SDS011;20043;50.998;4.754;2023-07-31T02:13:06;24.17;;;7.25;;
33714;SDS011;20043;50.998;4.754;2023-07-31T02:15:31;18.05;;;6.63;;
33714;SDS011;20043;50.998;4.754;2023-07-31T02:17:57;19.70;;;6.90;;
33714;SDS011;20043;50.998;4.754;2023-07-31T02:20:23;23.67;;;6.82;;
33714;SDS011;20043;50.998;4.754;2023-07-31T02:22:49;17.23;;;6.43;;
33714;SDS011;20043;50.998;4.754;2023-07-31T02:25:15;24.10;;;7.43;;
33714;SDS011;20043;50.998;4.754;2023-07-31T02:27:40;17.35;;;6.28;;
33714;SDS011;20043;50.998;4.754;2023-07-31T02:30:06;23.05;;;6.50;;
33714;SDS011;20043;50.998;4.754;2023-07-31T02:32:32;23.95;;;7.18;;
33714;SDS011;20043;50.998;4.754;2023-07-31T02:34:57;18.65;;;6.90;;
33714;SDS011;20043;50.998;4.754;2023-07-31T02:37:23;15.85;;;6.70;;
33714;SDS011;20043;50.998;4.754;2023-07-31T02:39:50;24.75;;;6.82;;
33714;SDS011;20043;50.998;4.754;2023-07-31T02:42:16;19.98;;;6.93;;
33714;SDS011;20043;50.998;4.754;2023-07-31T02:44:41;26.45;;;7.65;;
33714;SDS011;20043;50.998;4.754;2023-07-31T02:47:07;21.63;;;6.78;;
33714;SDS011;20043;50.998;4.754;2023-07-31T02:49:33;17.67;;;7.05;;
33714;SDS011;20043;50.998;4.754;2023-07-31T02:51:58;17.38;;;6.63;;
33714;SDS011;20043;50.998;4.754;2023-07-31T02:54:24;20.80;;;7.10;;
33714;SDS011;20043;50.998;4.754;2023-07-31T02:56:49;19.48;;;7.28;;
33714;SDS011;20043;50.998;4.754;2023-07-31T02:59:17;21.50;;;7.03;;
33714;SDS011;20043;50.998;4.754;2023-07-31T03:01:43;28.38;;;7.15;;
33714;SDS011;20043;50.998;4.754;2023-07-31T03:04:08;18.50;;;7.00;;
33714;SDS011;20043;50.998;4.754;2023-07-31T03:06:34;29.00;;;7.63;;
33714;SDS011;20043;50.998;4.754;2023-07-31T03:09:00;18.00;;;6.88;;
33714;SDS011;20043;50.998;4.754;2023-07-31T03:11:25;20.77;;;6.80;;
33714;SDS011;20043;50.998;4.754;2023-07-31T03:13:51;20.50;;;7.15;;
33714;SDS011;20043;50.998;4.754;2023-07-31T03:16:17;22.15;;;7.22;;
33714;SDS011;20043;50.998;4.754;2023-07-31T03:18:42;17.42;;;6.72;;
33714;SDS011;20043;50.998;4.754;2023-07-31T03:21:08;16.30;;;7.47;;
33714;SDS011;20043;50.998;4.754;2023-07-31T03:23:34;19.65;;;6.50;;
33714;SDS011;20043;50.998;4.754;2023-07-31T03:26:00;18.27;;;6.35;;
33714;SDS011;20043;50.998;4.754;2023-07-31T03:28:28;21.17;;;7.05;;
33714;SDS011;20043;50.998;4.754;2023-07-31T03:30:54;18.40;;;6.97;;
33714;SDS011;20043;50.998;4.754;2023-07-31T03:33:20;14.50;;;6.53;;
33714;SDS011;20043;50.998;4.754;2023-07-31T03:35:46;16.77;;;6.50;;
33714;SDS011;20043;50.998;4.754;2023-07-31T03:38:12;15.73;;;6.38;;
33714;SDS011;20043;50.998;4.754;2023-07-31T03:40:37;16.02;;;5.95;;
33714;SDS011;20043;50.998;4.754;2023-07-31T03:43:03;13.05;;;6.35;;
33714;SDS011;20043;50.998;4.754;2023-07-31T03:45:28;15.98;;;5.93;;
33714;SDS011;20043;50.998;4.754;2023-07-31T03:47:54;12.38;;;5.82;;
33714;SDS011;20043;50.998;4.754;2023-07-31T03:50:20;14.43;;;6.03;;
33714;SDS011;20043;50.998;4.754;2023-07-31T03:52:46;14.98;;;6.22;;
33714;SDS011;20043;50.998;4.754;2023-07-31T03:55:12;11.43;;;5.90;;
33714;SDS011;20043;50.998;4.754;2023-07-31T03:57:38;12.32;;;5.60;;
33714;SDS011;20043;50.998;4.754;2023-07-31T04:00:04;15.68;;;6.20;;
33714;SDS011;20043;50.998;4.754;2023-07-31T04:02:30;13.23;;;5.90;;
33714;SDS011;20043;50.998;4.754;2023-07-31T04:04:55;14.10;;;6.38;;
33714;SDS011;20043;50.998;4.754;2023-07-31T04:07:21;19.77;;;6.50;;
33714;SDS011;20043;50.998;4.754;2023-07-31T04:09:46;12.70;;;5.95;;
33714;SDS011;20043;50.998;4.754;2023-07-31T04:12:12;17.00;;;6.25;;
33714;SDS011;20043;50.998;4.754;2023-07-31T04:14:37;17.30;;;6.72;;
33714;SDS011;20043;50.998;4.754;2023-07-31T04:17:03;16.88;;;6.78;;
33714;SDS011;20043;50.998;4.754;2023-07-31T04:19:29;12.73;;;6.47;;
33714;SDS011;20043;50.998;4.754;2023-07-31T04:21:54;13.13;;;6.95;;
33714;SDS011;20043;50.998;4.754;2023-07-31T04:24:20;19.27;;;7.72;;
33714;SDS011;20043;50.998;4.754;2023-07-31T04:26:49;16.27;;;7.40;;
33714;SDS011;20043;50.998;4.754;2023-07-31T04:29:16;16.23;;;7.53;;
33714;SDS011;20043;50.998;4.754;2023-07-31T04:31:42;13.55;;;7.57;;
33714;SDS011;20043;50.998;4.754;2023-07-31T04:34:07;15.38;;;8.48;;
33714;SDS011;20043;50.998;4.754;2023-07-31T04:36:33;21.05;;;7.97;;
33714;SDS011;20043;50.998;4.754;2023-07-31T04:38:59;16.58;;;7.63;;
33714;SDS011;20043;50.998;4.754;2023-07-31T04:41:25;17.80;;;7.57;;
33714;SDS011;20043;50.998;4.754;2023-07-31T04:43:51;16.20;;;6.75;;
33714;SDS011;20043;50.998;4.754;2023-07-31T04:46:17;15.68;;;7.32;;
33714;SDS011;20043;50.998;4.754;2023-07-31T04:48:42;13.63;;;6.93;;
33714;SDS011;20043;50.998;4.754;2023-07-31T04:51:08;14.80;;;7.07;;
33714;SDS011;20043;50.998;4.754;2023-07-31T04:53:36;18.05;;;7.47;;
33714;SDS011;20043;50.998;4.754;2023-07-31T04:56:02;17.73;;;7.63;;
33714;SDS011;20043;50.998;4.754;2023-07-31T04:58:28;16.52;;;6.85;;
33714;SDS011;20043;50.998;4.754;2023-07-31T05:00:54;15.52;;;6.78;;
33714;SDS011;20043;50.998;4.754;2023-07-31T05:03:19;14.35;;;6.82;;
33714;SDS011;20043;50.998;4.754;2023-07-31T05:05:45;17.15;;;7.07;;
33714;SDS011;20043;50.998;4.754;2023-07-31T05:08:11;15.93;;;6.20;;
33714;SDS011;20043;50.998;4.754;2023-07-31T05:10:37;13.30;;;6.45;;
33714;SDS011;20043;50.998;4.754;2023-07-31T05:13:09;12.15;;;6.10;;
33714;SDS011;20043;50.998;4.754;2023-07-31T05:15:34;13.90;;;6.78;;
33714;SDS011;20043;50.998;4.754;2023-07-31T05:18:00;15.90;;;6.43;;
33714;SDS011;20043;50.998;4.754;2023-07-31T05:20:26;12.05;;;6.03;;
33714;SDS011;20043;50.998;4.754;2023-07-31T05:22:52;13.13;;;6.72;;
33714;SDS011;20043;50.998;4.754;2023-07-31T05:25:18;17.00;;;6.78;;
33714;SDS011;20043;50.998;4.754;2023-07-31T05:27:44;16.25;;;7.10;;
33714;SDS011;20043;50.998;4.754;2023-07-31T05:30:10;18.25;;;7.13;;
33714;SDS011;20043;50.998;4.754;2023-07-31T05:32:35;15.50;;;6.47;;
33714;SDS011;20043;50.998;4.754;2023-07-31T05:35:01;16.10;;;7.05;;
33714;SDS011;20043;50.998;4.754;2023-07-31T05:37:27;13.38;;;6.78;;
33714;SDS011;20043;50.998;4.754;2023-07-31T05:39:52;12.93;;;5.97;;
33714;SDS011;20043;50.998;4.754;2023-07-31T05:42:18;14.60;;;6.30;;
33714;SDS011;20043;50.998;4.754;2023-07-31T05:44:43;13.95;;;6.05;;
33714;SDS011;20043;50.998;4.754;2023-07-31T05:47:09;12.18;;;5.88;;
33714;SDS011;20043;50.998;4.754;2023-07-31T05:49:35;11.85;;;6.15;;
33714;SDS011;20043;50.998;4.754;2023-07-31T05:52:00;15.23;;;6.35;;
33714;SDS011;20043;50.998;4.754;2023-07-31T05:54:26;12.00;;;6.47;;
33714;SDS011;20043;50.998;4.754;2023-07-31T05:56:52;14.25;;;6.18;;
33714;SDS011;20043;50.998;4.754;2023-07-31T05:59:17;12.90;;;6.25;;
33714;SDS011;20043;50.998;4.754;2023-07-31T06:01:43;12.77;;;6.32;;
33714;SDS011;20043;50.998;4.754;2023-07-31T06:04:09;14.25;;;6.25;;
33714;SDS011;20043;50.998;4.754;2023-07-31T06:06:34;14.02;;;5.65;;
33714;SDS011;20043;50.998;4.754;2023-07-31T06:09:00;10.70;;;5.70;;
33714;SDS011;20043;50.998;4.754;2023-07-31T06:11:25;16.67;;;6.20;;
33714;SDS011;20043;50.998;4.754;2023-07-31T06:13:51;12.13;;;6.18;;
33714;SDS011;20043;50.998;4.754;2023-07-31T06:16:17;13.07;;;6.47;;
33714;SDS011;20043;50.998;4.754;2023-07-31T06:18:43;13.38;;;5.80;;
33714;SDS011;20043;50.998;4.754;2023-07-31T06:21:09;13.55;;;6.20;;
33714;SDS011;20043;50.998;4.754;2023-07-31T06:23:35;14.25;;;6.00;;
33714;SDS011;20043;50.998;4.754;2023-07-31T06:26:01;14.60;;;6.43;;
33714;SDS011;20043;50.998;4.754;2023-07-31T06:28:30;17.85;;;6.75;;
33714;SDS011;20043;50.998;4.754;2023-07-31T06:30:57;13.65;;;6.68;;
33714;SDS011;20043;50.998;4.754;2023-07-31T06:33:23;12.82;;;6.80;;
33714;SDS011;20043;50.998;4.754;2023-07-31T06:35:49;24.05;;;6.75;;
33714;SDS011;20043;50.998;4.754;2023-07-31T06:38:14;14.35;;;6.20;;
33714;SDS011;20043;50.998;4.754;2023-07-31T06:40:40;11.13;;;6.10;;
33714;SDS011;20043;50.998;4.754;2023-07-31T06:43:06;12.88;;;6.10;;
33714;SDS011;20043;50.998;4.754;2023-07-31T06:45:34;14.32;;;5.72;;
33714;SDS011;20043;50.998;4.754;2023-07-31T06:48:01;13.23;;;5.60;;
33714;SDS011;20043;50.998;4.754;2023-07-31T06:50:36;13.80;;;6.07;;
33714;SDS011;20043;50.998;4.754;2023-07-31T06:53:02;11.48;;;6.00;;
33714;SDS011;20043;50.998;4.754;2023-07-31T06:55:27;15.77;;;6.18;;
33714;SDS011;20043;50.998;4.754;2023-07-31T06:57:54;14.00;;;6.25;;
33714;SDS011;20043;50.998;4.754;2023-07-31T07:00:21;13.77;;;5.43;;
33714;SDS011;20043;50.998;4.754;2023-07-31T07:02:48;12.57;;;5.88;;
33714;SDS011;20043;50.998;4.754;2023-07-31T07:05:15;11.90;;;5.50;;
33714;SDS011;20043;50.998;4.754;2023-07-31T07:07:43;16.55;;;6.30;;
33714;SDS011;20043;50.998;4.754;2023-07-31T07:10:09;11.52;;;5.47;;
33714;SDS011;20043;50.998;4.754;2023-07-31T07:12:35;12.30;;;5.10;;
33714;SDS011;20043;50.998;4.754;2023-07-31T07:15:01;11.50;;;5.22;;
33714;SDS011;20043;50.998;4.754;2023-07-31T07:17:28;11.90;;;5.47;;
33714;SDS011;20043;50.998;4.754;2023-07-31T07:19:58;15.18;;;6.00;;
33714;SDS011;20043;50.998;4.754;2023-07-31T07:22:25;15.55;;;5.07;;
33714;SDS011;20043;50.998;4.754;2023-07-31T07:24:52;10.90;;;5.20;;
33714;SDS011;20043;50.998;4.754;2023-07-31T07:27:19;12.23;;;5.43;;
33714;SDS011;20043;50.998;4.754;2023-07-31T07:29:46;13.48;;;5.18;;
33714;SDS011;20043;50.998;4.754;2023-07-31T07:32:13;9.48;;;4.75;;
33714;SDS011;20043;50.998;4.754;2023-07-31T07:34:39;11.63;;;5.07;;
33714;SDS011;20043;50.998;4.754;2023-07-31T07:37:05;13.10;;;4.65;;
33714;SDS011;20043;50.998;4.754;2023-07-31T07:39:31;13.82;;;4.65;;
33714;SDS011;20043;50.998;4.754;2023-07-31T07:41:57;14.95;;;5.30;;
33714;SDS011;20043;50.998;4.754;2023-07-31T07:44:22;10.20;;;4.78;;
33714;SDS011;20043;50.998;4.754;2023-07-31T07:46:48;12.13;;;4.55;;
33714;SDS011;20043;50.998;4.754;2023-07-31T07:49:13;16.30;;;5.50;;
33714;SDS011;20043;50.998;4.754;2023-07-31T07:51:39;9.20;;;3.97;;
33714;SDS011;20043;50.998;4.754;2023-07-31T07:54:05;11.07;;;4.50;;
33714;SDS011;20043;50.998;4.754;2023-07-31T07:56:31;8.88;;;4.70;;
33714;SDS011;20043;50.998;4.754;2023-07-31T07:58:58;15.63;;;4.57;;
33714;SDS011;20043;50.998;4.754;2023-07-31T08:01:23;8.68;;;4.30;;
33714;SDS011;20043;50.998;4.754;2023-07-31T08:03:49;15.35;;;4.90;;
33714;SDS011;20043;50.998;4.754;2023-07-31T08:06:15;13.80;;;5.47;;
33714;SDS011;20043;50.998;4.754;2023-07-31T08:08:40;12.80;;;4.88;;
33714;SDS011;20043;50.998;4.754;2023-07-31T08:11:06;7.47;;;4.35;;
33714;SDS011;20043;50.998;4.754;2023-07-31T08:13:33;10.13;;;4.25;;
33714;SDS011;20043;50.998;4.754;2023-07-31T08:15:58;10.88;;;5.07;;
33714;SDS011;20043;50.998;4.754;2023-07-31T08:18:24;11.82;;;4.15;;
33714;SDS011;20043;50.998;4.754;2023-07-31T08:20:50;9.48;;;4.65;;
33714;SDS011;20043;50.998;4.754;2023-07-31T08:23:15;10.05;;;4.43;;
33714;SDS011;20043;50.998;4.754;2023-07-31T08:25:41;11.70;;;4.15;;
33714;SDS011;20043;50.998;4.754;2023-07-31T08:28:07;8.05;;;3.88;;
33714;SDS011;20043;50.998;4.754;2023-07-31T08:30:33;13.82;;;4.75;;
33714;SDS011;20043;50.998;4.754;2023-07-31T08:32:59;9.07;;;4.15;;
33714;SDS011;20043;50.998;4.754;2023-07-31T08:35:32;11.77;;;3.95;;
33714;SDS011;20043;50.998;4.754;2023-07-31T08:37:57;7.78;;;3.80;;
33714;SDS011;20043;50.998;4.754;2023-07-31T08:40:23;9.02;;;3.85;;
33714;SDS011;20043;50.998;4.754;2023-07-31T08:42:49;12.88;;;4.30;;
33714;SDS011;20043;50.998;4.754;2023-07-31T08:45:19;7.47;;;3.53;;
33714;SDS011;20043;50.998;4.754;2023-07-31T08:47:49;12.27;;;4.20;;
33714;SDS011;20043;50.998;4.754;2023-07-31T08:50:17;7.78;;;3.60;;
33714;SDS011;20043;50.998;4.754;2023-07-31T08:52:45;8.18;;;3.72;;
33714;SDS011;20043;50.998;4.754;2023-07-31T08:55:12;12.07;;;3.97;;
33714;SDS011;20043;50.998;4.754;2023-07-31T08:57:41;9.13;;;3.60;;
33714;SDS011;20043;50.998;4.754;2023-07-31T09:00:08;6.88;;;3.35;;
33714;SDS011;20043;50.998;4.754;2023-07-31T09:02:37;7.80;;;3.30;;
33714;SDS011;20043;50.998;4.754;2023-07-31T09:05:05;6.75;;;3.00;;
33714;SDS011;20043;50.998;4.754;2023-07-31T09:07:32;9.23;;;3.45;;
33714;SDS011;20043;50.998;4.754;2023-07-31T09:10:00;8.45;;;3.53;;
33714;SDS011;20043;50.998;4.754;2023-07-31T09:12:27;8.55;;;3.63;;
33714;SDS011;20043;50.998;4.754;2023-07-31T09:14:53;5.85;;;3.30;;
33714;SDS011;20043;50.998;4.754;2023-07-31T09:17:28;11.35;;;4.07;;
33714;SDS011;20043;50.998;4.754;2023-07-31T09:20:13;10.88;;;3.70;;
33714;SDS011;20043;50.998;4.754;2023-07-31T09:22:43;7.10;;;3.72;;
33714;SDS011;20043;50.998;4.754;2023-07-31T09:25:22;11.43;;;4.13;;
33714;SDS011;20043;50.998;4.754;2023-07-31T09:27:50;9.25;;;4.18;;
33714;SDS011;20043;50.998;4.754;2023-07-31T09:30:20;10.23;;;4.38;;
33714;SDS011;20043;50.998;4.754;2023-07-31T09:32:47;6.68;;;3.72;;
33714;SDS011;20043;50.998;4.754;2023-07-31T09:35:20;8.68;;;3.85;;
33714;SDS011;20043;50.998;4.754;2023-07-31T09:37:49;7.07;;;3.92;;
33714;SDS011;20043;50.998;4.754;2023-07-31T09:40:28;8.18;;;4.18;;
33714;SDS011;20043;50.998;4.754;2023-07-31T09:42:59;10.90;;;4.20;;
33714;SDS011;20043;50.998;4.754;2023-07-31T09:45:26;8.35;;;4.22;;
33714;SDS011;20043;50.998;4.754;2023-07-31T09:47:53;8.68;;;4.00;;
33714;SDS011;20043;50.998;4.754;2023-07-31T09:50:23;15.25;;;4.60;;
33714;SDS011;20043;50.998;4.754;2023-07-31T09:52:52;10.18;;;4.45;;
33714;SDS011;20043;50.998;4.754;2023-07-31T09:55:18;9.00;;;4.32;;
33714;SDS011;20043;50.998;4.754;2023-07-31T09:57:45;13.35;;;4.40;;
33714;SDS011;20043;50.998;4.754;2023-07-31T10:00:15;8.57;;;4.65;;
33714;SDS011;20043;50.998;4.754;2023-07-31T10:02:44;10.13;;;4.10;;
33714;SDS011;20043;50.998;4.754;2023-07-31T10:05:12;7.97;;;4.43;;
33714;SDS011;20043;50.998;4.754;2023-07-31T10:07:40;8.40;;;4.18;;
33714;SDS011;20043;50.998;4.754;2023-07-31T10:10:21;9.95;;;3.97;;
33714;SDS011;20043;50.998;4.754;2023-07-31T10:12:51;11.10;;;3.78;;
33714;SDS011;20043;50.998;4.754;2023-07-31T10:15:18;10.68;;;4.05;;
33714;SDS011;20043;50.998;4.754;2023-07-31T10:17:46;6.35;;;4.05;;
33714;SDS011;20043;50.998;4.754;2023-07-31T10:20:12;6.95;;;3.80;;
33714;SDS011;20043;50.998;4.754;2023-07-31T10:22:41;6.93;;;3.15;;
33714;SDS011;20043;50.998;4.754;2023-07-31T10:25:08;7.93;;;3.83;;
33714;SDS011;20043;50.998;4.754;2023-07-31T10:27:35;8.65;;;4.10;;
33714;SDS011;20043;50.998;4.754;2023-07-31T10:30:01;7.53;;;3.78;;
33714;SDS011;20043;50.998;4.754;2023-07-31T10:32:30;9.15;;;4.07;;
33714;SDS011;20043;50.998;4.754;2023-07-31T10:34:57;8.13;;;4.00;;
33714;SDS011;20043;50.998;4.754;2023-07-31T10:37:27;7.53;;;3.97;;
33714;SDS011;20043;50.998;4.754;2023-07-31T10:42:29;9.38;;;4.40;;
33714;SDS011;20043;50.998;4.754;2023-07-31T10:44:57;7.70;;;4.05;;
33714;SDS011;20043;50.998;4.754;2023-07-31T10:47:23;8.85;;;3.80;;
33714;SDS011;20043;50.998;4.754;2023-07-31T10:49:49;9.13;;;4.40;;
33714;SDS011;20043;50.998;4.754;2023-07-31T10:52:17;9.43;;;4.30;;
33714;SDS011;20043;50.998;4.754;2023-07-31T10:54:49;10.48;;;4.45;;
33714;SDS011;20043;50.998;4.754;2023-07-31T10:57:21;11.32;;;4.65;;
33714;SDS011;20043;50.998;4.754;2023-07-31T10:59:48;10.15;;;4.75;;
33714;SDS011;20043;50.998;4.754;2023-07-31T11:02:25;8.45;;;4.47;;
33714;SDS011;20043;50.998;4.754;2023-07-31T11:05:07;11.32;;;5.05;;
33714;SDS011;20043;50.998;4.754;2023-07-31T11:07:46;9.65;;;4.88;;
33714;SDS011;20043;50.998;4.754;2023-07-31T11:10:15;10.40;;;5.07;;
33714;SDS011;20043;50.998;4.754;2023-07-31T11:12:50;8.30;;;4.47;;
33714;SDS011;20043;50.998;4.754;2023-07-31T11:15:29;13.27;;;4.72;;
33714;SDS011;20043;50.998;4.754;2023-07-31T11:17:55;13.93;;;5.43;;
33714;SDS011;20043;50.998;4.754;2023-07-31T11:20:23;10.40;;;4.93;;
33714;SDS011;20043;50.998;4.754;2023-07-31T11:22:49;12.55;;;5.60;;
33714;SDS011;20043;50.998;4.754;2023-07-31T11:25:15;11.52;;;5.43;;
33714;SDS011;20043;50.998;4.754;2023-07-31T11:27:41;12.82;;;5.40;;
33714;SDS011;20043;50.998;4.754;2023-07-31T11:30:08;12.50;;;5.07;;
33714;SDS011;20043;50.998;4.754;2023-07-31T11:32:37;12.60;;;5.00;;
33714;SDS011;20043;50.998;4.754;2023-07-31T11:35:03;9.45;;;5.30;;
33714;SDS011;20043;50.998;4.754;2023-07-31T11:37:40;12.57;;;5.20;;
33714;SDS011;20043;50.998;4.754;2023-07-31T11:40:07;12.77;;;5.78;;
33714;SDS011;20043;50.998;4.754;2023-07-31T11:42:34;12.15;;;5.43;;
33714;SDS011;20043;50.998;4.754;2023-07-31T11:45:04;14.25;;;5.60;;
33714;SDS011;20043;50.998;4.754;2023-07-31T11:47:31;13.23;;;5.22;;
33714;SDS011;20043;50.998;4.754;2023-07-31T11:49:59;12.38;;;5.18;;
33714;SDS011;20043;50.998;4.754;2023-07-31T11:52:26;15.13;;;5.80;;
33714;SDS011;20043;50.998;4.754;2023-07-31T11:54:54;13.60;;;5.20;;
33714;SDS011;20043;50.998;4.754;2023-07-31T11:57:21;11.40;;;5.53;;
33714;SDS011;20043;50.998;4.754;2023-07-31T11:59:47;12.63;;;5.25;;
33714;SDS011;20043;50.998;4.754;2023-07-31T12:02:14;14.45;;;5.90;;
33714;SDS011;20043;50.998;4.754;2023-07-31T12:04:40;16.85;;;5.90;;
33714;SDS011;20043;50.998;4.754;2023-07-31T12:07:06;12.82;;;5.82;;
33714;SDS011;20043;50.998;4.754;2023-07-31T12:09:31;13.70;;;5.25;;
33714;SDS011;20043;50.998;4.754;2023-07-31T12:11:57;12.85;;;5.55;;
33714;SDS011;20043;50.998;4.754;2023-07-31T12:14:26;12.05;;;5.53;;
33714;SDS011;20043;50.998;4.754;2023-07-31T12:16:59;11.60;;;5.57;;
33714;SDS011;20043;50.998;4.754;2023-07-31T12:19:28;16.30;;;5.43;;
33714;SDS011;20043;50.998;4.754;2023-07-31T12:22:10;13.13;;;5.30;;
33714;SDS011;20043;50.998;4.754;2023-07-31T12:24:41;13.43;;;5.90;;
33714;SDS011;20043;50.998;4.754;2023-07-31T12:27:13;11.57;;;5.20;;
33714;SDS011;20043;50.998;4.754;2023-07-31T12:29:41;13.02;;;5.43;;
33714;SDS011;20043;50.998;4.754;2023-07-31T12:32:22;15.40;;;5.28;;
33714;SDS011;20043;50.998;4.754;2023-07-31T12:34:49;13.80;;;5.28;;
33714;SDS011;20043;50.998;4.754;2023-07-31T12:37:15;11.27;;;5.15;;
33714;SDS011;20043;50.998;4.754;2023-07-31T12:39:41;10.60;;;5.38;;
33714;SDS011;20043;50.998;4.754;2023-07-31T12:42:07;12.95;;;5.15;;
33714;SDS011;20043;50.998;4.754;2023-07-31T12:44:33;12.93;;;5.80;;
33714;SDS011;20043;50.998;4.754;2023-07-31T12:46:58;12.82;;;5.38;;
33714;SDS011;20043;50.998;4.754;2023-07-31T12:49:24;16.10;;;5.65;;
33714;SDS011;20043;50.998;4.754;2023-07-31T12:51:50;11.85;;;5.38;;
33714;SDS011;20043;50.998;4.754;2023-07-31T12:54:15;9.40;;;5.05;;
33714;SDS011;20043;50.998;4.754;2023-07-31T12:56:41;13.27;;;5.25;;
33714;SDS011;20043;50.998;4.754;2023-07-31T12:59:06;9.93;;;5.22;;
33714;SDS011;20043;50.998;4.754;2023-07-31T13:01:32;11.55;;;4.95;;
33714;SDS011;20043;50.998;4.754;2023-07-31T13:03:58;13.60;;;5.80;;
33714;SDS011;20043;50.998;4.754;2023-07-31T13:06:24;13.38;;;5.13;;
33714;SDS011;20043;50.998;4.754;2023-07-31T13:08:50;9.48;;;4.93;;
33714;SDS011;20043;50.998;4.754;2023-07-31T13:11:16;13.48;;;5.80;;
33714;SDS011;20043;50.998;4.754;2023-07-31T13:13:42;11.15;;;5.25;;
33714;SDS011;20043;50.998;4.754;2023-07-31T13:16:07;16.45;;;5.38;;
33714;SDS011;20043;50.998;4.754;2023-07-31T13:18:33;10.27;;;4.88;;
33714;SDS011;20043;50.998;4.754;2023-07-31T13:20:58;11.90;;;5.28;;
33714;SDS011;20043;50.998;4.754;2023-07-31T13:23:24;11.93;;;4.55;;
33714;SDS011;20043;50.998;4.754;2023-07-31T13:25:50;12.60;;;5.07;;
33714;SDS011;20043;50.998;4.754;2023-07-31T13:28:15;13.40;;;5.28;;
33714;SDS011;20043;50.998;4.754;2023-07-31T13:30:41;11.65;;;5.72;;
33714;SDS011;20043;50.998;4.754;2023-07-31T13:33:07;13.25;;;5.60;;
33714;SDS011;20043;50.998;4.754;2023-07-31T13:35:32;12.20;;;5.20;;
33714;SDS011;20043;50.998;4.754;2023-07-31T13:37:58;9.85;;;4.78;;
33714;SDS011;20043;50.998;4.754;2023-07-31T13:40:23;14.05;;;5.20;;
33714;SDS011;20043;50.998;4.754;2023-07-31T13:42:49;10.25;;;4.93;;
33714;SDS011;20043;50.998;4.754;2023-07-31T13:45:15;8.70;;;4.32;;
33714;SDS011;20043;50.998;4.754;2023-07-31T13:47:40;8.60;;;3.88;;
33714;SDS011;20043;50.998;4.754;2023-07-31T13:50:06;9.48;;;4.07;;
33714;SDS011;20043;50.998;4.754;2023-07-31T13:52:32;11.32;;;4.20;;
33714;SDS011;20043;50.998;4.754;2023-07-31T13:54:57;8.98;;;4.53;;
33714;SDS011;20043;50.998;4.754;2023-07-31T13:57:23;12.60;;;4.22;;
33714;SDS011;20043;50.998;4.754;2023-07-31T13:59:49;10.93;;;4.55;;
33714;SDS011;20043;50.998;4.754;2023-07-31T14:02:14;10.80;;;4.88;;
33714;SDS011;20043;50.998;4.754;2023-07-31T14:04:40;8.45;;;4.78;;
33714;SDS011;20043;50.998;4.754;2023-07-31T14:07:06;11.88;;;4.70;;
33714;SDS011;20043;50.998;4.754;2023-07-31T14:09:32;11.70;;;4.35;;
33714;SDS011;20043;50.998;4.754;2023-07-31T14:11:57;7.45;;;3.70;;
33714;SDS011;20043;50.998;4.754;2023-07-31T14:14:23;10.38;;;4.53;;
33714;SDS011;20043;50.998;4.754;2023-07-31T14:16:49;7.30;;;4.20;;
33714;SDS011;20043;50.998;4.754;2023-07-31T14:19:14;9.27;;;3.97;;
33714;SDS011;20043;50.998;4.754;2023-07-31T14:21:40;7.88;;;4.07;;
33714;SDS011;20043;50.998;4.754;2023-07-31T14:24:05;9.80;;;3.88;;
33714;SDS011;20043;50.998;4.754;2023-07-31T14:26:31;4.80;;;3.30;;
33714;SDS011;20043;50.998;4.754;2023-07-31T14:28:57;7.82;;;3.72;;
33714;SDS011;20043;50.998;4.754;2023-07-31T14:31:22;7.80;;;3.65;;
33714;SDS011;20043;50.998;4.754;2023-07-31T14:33:48;9.15;;;3.78;;
33714;SDS011;20043;50.998;4.754;2023-07-31T14:36:14;5.70;;;3.38;;
33714;SDS011;20043;50.998;4.754;2023-07-31T14:38:39;7.10;;;3.65;;
33714;SDS011;20043;50.998;4.754;2023-07-31T14:41:05;6.75;;;3.67;;
33714;SDS011;20043;50.998;4.754;2023-07-31T14:43:30;6.35;;;3.83;;
33714;SDS011;20043;50.998;4.754;2023-07-31T14:45:57;6.82;;;3.50;;